sensor_id;sensor_type;location;lat;lon;timestamp;temperature;humidity
5286;DHT22;2665;53.112;7.358;2023-09-18T00:02:20;17.00;1.00
5286;DHT22;2665;53.112;7.358;2023-09-18T00:04:46;17.10;1.00
5286;DHT22;2665;53.112;7.358;2023-09-18T00:07:12;17.10;1.00
5286;DHT22;2665;53.112;7.358;2023-09-18T00:09:37;17.10;1.00
5286;DHT22;2665;53.112;7.358;2023-09-18T00:12:03;17.10;1.00
5286;DHT22;2665;53.112;7.358;2023-09-18T00:14:29;17.10;1.00
5286;DHT22;2665;53.112;7.358;2023-09-18T00:16:55;17.10;1.00
5286;DHT22;2665;53.112;7.358;2023-09-18T00:19:23;17.10;1.00
5286;DHT22;2665;53.112;7.358;2023-09-18T00:21:49;17.00;1.00
5286;DHT22;2665;53.112;7.358;2023-09-18T00:24:16;17.00;1.00
5286;DHT22;2665;53.112;7.358;2023-09-18T00:26:42;17.00;1.00
5286;DHT22;2665;53.112;7.358;2023-09-18T00:29:08;16.90;1.00
5286;DHT22;2665;53.112;7.358;2023-09-18T00:31:34;16.90;1.00
5286;DHT22;2665;53.112;7.358;2023-09-18T00:33:59;16.90;1.00
5286;DHT22;2665;53.112;7.358;2023-09-18T00:36:25;16.90;1.00
5286;DHT22;2665;53.112;7.358;2023-09-18T00:38:51;16.80;1.00
5286;DHT22;2665;53.112;7.358;2023-09-18T00:41:16;16.90;1.00
5286;DHT22;2665;53.112;7.358;2023-09-18T00:43:42;16.80;1.00
5286;DHT22;2665;53.112;7.358;2023-09-18T00:46:08;16.80;1.00
5286;DHT22;2665;53.112;7.358;2023-09-18T00:48:34;16.70;1.00
5286;DHT22;2665;53.112;7.358;2023-09-18T00:50:59;16.70;1.00
5286;DHT22;2665;53.112;7.358;2023-09-18T00:53:26;16.60;1.00
5286;DHT22;2665;53.112;7.358;2023-09-18T00:55:54;16.60;1.00
5286;DHT22;2665;53.112;7.358;2023-09-18T00:58:21;16.70;1.00
5286;DHT22;2665;53.112;7.358;2023-09-18T01:00:47;16.60;1.00
5286;DHT22;2665;53.112;7.358;2023-09-18T01:03:16;16.60;1.00
5286;DHT22;2665;53.112;7.358;2023-09-18T01:05:44;16.60;1.00
5286;DHT22;2665;53.112;7.358;2023-09-18T01:08:10;16.60;1.00
5286;DHT22;2665;53.112;7.358;2023-09-18T01:11:19;16.70;1.00
5286;DHT22;2665;53.112;7.358;2023-09-18T01:16:53;16.70;1.00
5286;DHT22;2665;53.112;7.358;2023-09-18T01:22:08;16.80;1.00
5286;DHT22;2665;53.112;7.358;2023-09-18T01:24:35;16.80;1.00
5286;DHT22;2665;53.112;7.358;2023-09-18T01:27:02;16.80;1.00
5286;DHT22;2665;53.112;7.358;2023-09-18T01:29:29;16.80;1.00
5286;DHT22;2665;53.112;7.358;2023-09-18T01:31:55;16.90;1.00
5286;DHT22;2665;53.112;7.358;2023-09-18T01:34:22;16.90;1.00
5286;DHT22;2665;53.112;7.358;2023-09-18T01:36:51;16.90;1.00
5286;DHT22;2665;53.112;7.358;2023-09-18T01:39:18;16.90;1.00
5286;DHT22;2665;53.112;7.358;2023-09-18T01:41:44;16.90;1.00
5286;DHT22;2665;53.112;7.358;2023-09-18T01:44:11;16.90;1.00
5286;DHT22;2665;53.112;7.358;2023-09-18T01:46:37;17.00;1.00
5286;DHT22;2665;53.112;7.358;2023-09-18T01:49:03;17.00;1.00
5286;DHT22;2665;53.112;7.358;2023-09-18T01:51:29;17.00;1.00
5286;DHT22;2665;53.112;7.358;2023-09-18T01:53:56;17.00;1.00
5286;DHT22;2665;53.112;7.358;2023-09-18T01:56:23;17.00;1.00
5286;DHT22;2665;53.112;7.358;2023-09-18T01:58:49;17.10;1.00
5286;DHT22;2665;53.112;7.358;2023-09-18T02:01:14;17.10;1.00
5286;DHT22;2665;53.112;7.358;2023-09-18T02:03:40;17.10;1.00
5286;DHT22;2665;53.112;7.358;2023-09-18T02:06:07;17.10;1.00
5286;DHT22;2665;53.112;7.358;2023-09-18T02:08:34;17.10;1.00
5286;DHT22;2665;53.112;7.358;2023-09-18T02:11:00;17.10;1.00
5286;DHT22;2665;53.112;7.358;2023-09-18T02:13:25;17.10;1.00
5286;DHT22;2665;53.112;7.358;2023-09-18T02:15:51;17.10;1.00
5286;DHT22;2665;53.112;7.358;2023-09-18T02:18:17;17.10;1.00
5286;DHT22;2665;53.112;7.358;2023-09-18T02:20:43;17.00;1.00
5286;DHT22;2665;53.112;7.358;2023-09-18T02:23:13;17.00;1.00
5286;DHT22;2665;53.112;7.358;2023-09-18T02:25:38;17.10;1.00
5286;DHT22;2665;53.112;7.358;2023-09-18T02:28:06;17.00;1.00
5286;DHT22;2665;53.112;7.358;2023-09-18T02:30:32;17.00;1.00
5286;DHT22;2665;53.112;7.358;2023-09-18T02:32:58;17.00;1.00
5286;DHT22;2665;53.112;7.358;2023-09-18T02:35:25;17.00;1.00
5286;DHT22;2665;53.112;7.358;2023-09-18T02:37:51;17.10;1.00
5286;DHT22;2665;53.112;7.358;2023-09-18T02:40:17;17.10;1.00
5286;DHT22;2665;53.112;7.358;2023-09-18T02:42:43;17.10;1.00
5286;DHT22;2665;53.112;7.358;2023-09-18T02:45:09;17.10;1.00
5286;DHT22;2665;53.112;7.358;2023-09-18T02:47:35;17.10;1.00
5286;DHT22;2665;53.112;7.358;2023-09-18T02:50:04;17.20;1.00
5286;DHT22;2665;53.112;7.358;2023-09-18T02:52:30;17.20;1.00
5286;DHT22;2665;53.112;7.358;2023-09-18T02:54:56;17.30;1.00
5286;DHT22;2665;53.112;7.358;2023-09-18T02:57:22;17.30;1.00
5286;DHT22;2665;53.112;7.358;2023-09-18T02:59:47;17.30;1.00
5286;DHT22;2665;53.112;7.358;2023-09-18T03:02:14;17.30;1.00
5286;DHT22;2665;53.112;7.358;2023-09-18T03:04:39;17.30;1.00
5286;DHT22;2665;53.112;7.358;2023-09-18T03:07:05;17.30;1.00
5286;DHT22;2665;53.112;7.358;2023-09-18T03:09:31;17.30;1.00
5286;DHT22;2665;53.112;7.358;2023-09-18T03:11:56;17.30;1.00
5286;DHT22;2665;53.112;7.358;2023-09-18T03:14:22;17.30;1.00
5286;DHT22;2665;53.112;7.358;2023-09-18T03:16:48;17.30;1.00
5286;DHT22;2665;53.112;7.358;2023-09-18T03:19:13;17.30;1.00
5286;DHT22;2665;53.112;7.358;2023-09-18T03:21:39;17.40;1.00
5286;DHT22;2665;53.112;7.358;2023-09-18T03:24:05;17.40;1.00
5286;DHT22;2665;53.112;7.358;2023-09-18T03:26:31;17.40;1.00
5286;DHT22;2665;53.112;7.358;2023-09-18T03:28:56;17.30;1.00
5286;DHT22;2665;53.112;7.358;2023-09-18T03:31:22;17.30;1.00
5286;DHT22;2665;53.112;7.358;2023-09-18T03:33:48;17.30;1.00
5286;DHT22;2665;53.112;7.358;2023-09-18T03:36:13;17.30;1.00
5286;DHT22;2665;53.112;7.358;2023-09-18T03:38:40;17.30;1.00
5286;DHT22;2665;53.112;7.358;2023-09-18T03:41:05;17.30;1.00
5286;DHT22;2665;53.112;7.358;2023-09-18T03:43:31;17.30;1.00
5286;DHT22;2665;53.112;7.358;2023-09-18T03:46:06;17.30;1.00
5286;DHT22;2665;53.112;7.358;2023-09-18T03:48:33;17.30;1.00
5286;DHT22;2665;53.112;7.358;2023-09-18T03:51:05;17.30;1.00
5286;DHT22;2665;53.112;7.358;2023-09-18T03:53:32;17.30;1.00
5286;DHT22;2665;53.112;7.358;2023-09-18T03:55:59;17.30;1.00
5286;DHT22;2665;53.112;7.358;2023-09-18T03:58:24;17.30;1.00
5286;DHT22;2665;53.112;7.358;2023-09-18T04:00:50;17.30;1.00
5286;DHT22;2665;53.112;7.358;2023-09-18T04:03:17;17.30;1.00
5286;DHT22;2665;53.112;7.358;2023-09-18T04:05:42;17.30;1.00
5286;DHT22;2665;53.112;7.358;2023-09-18T04:08:08;17.30;1.00
5286;DHT22;2665;53.112;7.358;2023-09-18T04:10:34;17.30;1.00
5286;DHT22;2665;53.112;7.358;2023-09-18T04:13:00;17.40;1.00
5286;DHT22;2665;53.112;7.358;2023-09-18T04:15:26;17.40;1.00
5286;DHT22;2665;53.112;7.358;2023-09-18T04:17:53;17.40;1.00
5286;DHT22;2665;53.112;7.358;2023-09-18T04:20:19;17.50;1.00
5286;DHT22;2665;53.112;7.358;2023-09-18T04:22:46;17.50;1.00
5286;DHT22;2665;53.112;7.358;2023-09-18T04:25:15;17.50;1.00
5286;DHT22;2665;53.112;7.358;2023-09-18T04:27:41;17.50;1.00
5286;DHT22;2665;53.112;7.358;2023-09-18T04:30:08;17.60;1.00
5286;DHT22;2665;53.112;7.358;2023-09-18T04:32:36;17.60;1.00
5286;DHT22;2665;53.112;7.358;2023-09-18T04:35:03;17.60;1.00
5286;DHT22;2665;53.112;7.358;2023-09-18T04:37:30;17.60;1.00
5286;DHT22;2665;53.112;7.358;2023-09-18T04:39:57;17.60;1.00
5286;DHT22;2665;53.112;7.358;2023-09-18T04:42:23;17.70;1.00
5286;DHT22;2665;53.112;7.358;2023-09-18T04:44:49;17.70;1.00
5286;DHT22;2665;53.112;7.358;2023-09-18T04:47:14;17.70;1.00
5286;DHT22;2665;53.112;7.358;2023-09-18T04:49:40;17.70;1.00
5286;DHT22;2665;53.112;7.358;2023-09-18T04:52:06;17.80;1.00
5286;DHT22;2665;53.112;7.358;2023-09-18T04:54:32;17.80;1.00
5286;DHT22;2665;53.112;7.358;2023-09-18T04:56:57;17.80;1.00
5286;DHT22;2665;53.112;7.358;2023-09-18T04:59:23;17.80;1.00
5286;DHT22;2665;53.112;7.358;2023-09-18T05:01:48;17.80;1.00
5286;DHT22;2665;53.112;7.358;2023-09-18T05:04:14;17.80;1.00
5286;DHT22;2665;53.112;7.358;2023-09-18T05:06:40;17.80;1.00
5286;DHT22;2665;53.112;7.358;2023-09-18T05:09:07;17.80;1.00
5286;DHT22;2665;53.112;7.358;2023-09-18T05:11:33;17.80;1.00
5286;DHT22;2665;53.112;7.358;2023-09-18T05:13:59;17.80;1.00
5286;DHT22;2665;53.112;7.358;2023-09-18T05:16:25;17.80;1.00
5286;DHT22;2665;53.112;7.358;2023-09-18T05:18:50;17.80;1.00
5286;DHT22;2665;53.112;7.358;2023-09-18T05:21:16;17.90;1.00
5286;DHT22;2665;53.112;7.358;2023-09-18T05:23:47;17.90;1.00
5286;DHT22;2665;53.112;7.358;2023-09-18T05:26:13;17.90;1.00
5286;DHT22;2665;53.112;7.358;2023-09-18T05:28:39;17.90;1.00
5286;DHT22;2665;53.112;7.358;2023-09-18T05:31:04;18.00;1.00
5286;DHT22;2665;53.112;7.358;2023-09-18T05:33:30;18.00;1.00
5286;DHT22;2665;53.112;7.358;2023-09-18T05:35:56;18.10;1.00
5286;DHT22;2665;53.112;7.358;2023-09-18T05:38:21;18.10;1.00
5286;DHT22;2665;53.112;7.358;2023-09-18T05:40:47;18.10;1.00
5286;DHT22;2665;53.112;7.358;2023-09-18T05:43:14;18.20;1.00
5286;DHT22;2665;53.112;7.358;2023-09-18T05:45:40;18.20;1.00
5286;DHT22;2665;53.112;7.358;2023-09-18T05:48:06;18.30;1.00
5286;DHT22;2665;53.112;7.358;2023-09-18T05:50:33;18.30;1.00
5286;DHT22;2665;53.112;7.358;2023-09-18T05:53:01;18.30;1.00
5286;DHT22;2665;53.112;7.358;2023-09-18T05:55:30;18.30;1.00
5286;DHT22;2665;53.112;7.358;2023-09-18T05:57:56;18.40;1.00
5286;DHT22;2665;53.112;7.358;2023-09-18T06:00:22;18.50;1.00
5286;DHT22;2665;53.112;7.358;2023-09-18T06:02:49;18.40;1.00
5286;DHT22;2665;53.112;7.358;2023-09-18T06:05:16;18.50;1.00
5286;DHT22;2665;53.112;7.358;2023-09-18T06:07:42;18.50;1.00
5286;DHT22;2665;53.112;7.358;2023-09-18T06:10:09;18.50;1.00
5286;DHT22;2665;53.112;7.358;2023-09-18T06:12:37;18.60;1.00
5286;DHT22;2665;53.112;7.358;2023-09-18T06:15:04;18.60;1.00
5286;DHT22;2665;53.112;7.358;2023-09-18T06:17:29;18.70;1.00
5286;DHT22;2665;53.112;7.358;2023-09-18T06:19:55;18.70;1.00
5286;DHT22;2665;53.112;7.358;2023-09-18T06:22:21;18.70;1.00
5286;DHT22;2665;53.112;7.358;2023-09-18T06:24:46;18.80;1.00
5286;DHT22;2665;53.112;7.358;2023-09-18T06:27:12;18.80;1.00
5286;DHT22;2665;53.112;7.358;2023-09-18T06:29:38;18.80;1.00
5286;DHT22;2665;53.112;7.358;2023-09-18T06:32:04;18.80;1.00
5286;DHT22;2665;53.112;7.358;2023-09-18T06:34:31;18.80;1.00
5286;DHT22;2665;53.112;7.358;2023-09-18T06:36:57;18.80;1.00
5286;DHT22;2665;53.112;7.358;2023-09-18T06:39:22;18.80;1.00
5286;DHT22;2665;53.112;7.358;2023-09-18T06:41:49;18.80;1.00
5286;DHT22;2665;53.112;7.358;2023-09-18T06:44:15;18.80;1.00
5286;DHT22;2665;53.112;7.358;2023-09-18T06:46:41;18.80;1.00
5286;DHT22;2665;53.112;7.358;2023-09-18T06:49:07;18.90;1.00
5286;DHT22;2665;53.112;7.358;2023-09-18T06:51:32;19.00;1.00
5286;DHT22;2665;53.112;7.358;2023-09-18T06:53:58;19.00;1.00
5286;DHT22;2665;53.112;7.358;2023-09-18T06:56:24;19.00;1.00
5286;DHT22;2665;53.112;7.358;2023-09-18T06:58:51;18.90;1.00
5286;DHT22;2665;53.112;7.358;2023-09-18T07:01:20;18.70;1.00
5286;DHT22;2665;53.112;7.358;2023-09-18T07:03:47;18.60;1.00
5286;DHT22;2665;53.112;7.358;2023-09-18T07:06:14;18.60;1.00
5286;DHT22;2665;53.112;7.358;2023-09-18T07:08:43;18.60;1.00
5286;DHT22;2665;53.112;7.358;2023-09-18T07:11:09;18.60;1.00
5286;DHT22;2665;53.112;7.358;2023-09-18T07:13:34;18.70;1.00
5286;DHT22;2665;53.112;7.358;2023-09-18T07:16:00;18.80;1.00
5286;DHT22;2665;53.112;7.358;2023-09-18T07:18:26;18.80;1.00
5286;DHT22;2665;53.112;7.358;2023-09-18T07:20:51;18.90;1.00
5286;DHT22;2665;53.112;7.358;2023-09-18T07:23:17;18.90;1.00
5286;DHT22;2665;53.112;7.358;2023-09-18T07:25:43;18.90;1.00
5286;DHT22;2665;53.112;7.358;2023-09-18T07:28:09;19.00;1.00
5286;DHT22;2665;53.112;7.358;2023-09-18T07:30:41;19.00;1.00
5286;DHT22;2665;53.112;7.358;2023-09-18T07:33:07;19.00;1.00
5286;DHT22;2665;53.112;7.358;2023-09-18T07:35:32;18.90;1.00
5286;DHT22;2665;53.112;7.358;2023-09-18T07:37:58;18.90;1.00
5286;DHT22;2665;53.112;7.358;2023-09-18T07:40:24;18.80;1.00
5286;DHT22;2665;53.112;7.358;2023-09-18T07:42:49;18.80;1.00
5286;DHT22;2665;53.112;7.358;2023-09-18T07:45:15;18.80;1.00
5286;DHT22;2665;53.112;7.358;2023-09-18T07:47:41;18.90;1.00
5286;DHT22;2665;53.112;7.358;2023-09-18T07:50:07;18.90;1.00
5286;DHT22;2665;53.112;7.358;2023-09-18T07:52:32;18.90;1.00
5286;DHT22;2665;53.112;7.358;2023-09-18T07:54:59;19.00;1.00
5286;DHT22;2665;53.112;7.358;2023-09-18T07:57:25;19.00;1.00
5286;DHT22;2665;53.112;7.358;2023-09-18T07:59:53;19.00;1.00
5286;DHT22;2665;53.112;7.358;2023-09-18T08:02:19;19.00;1.00
5286;DHT22;2665;53.112;7.358;2023-09-18T08:04:45;19.00;1.00
5286;DHT22;2665;53.112;7.358;2023-09-18T08:07:10;19.00;1.00
5286;DHT22;2665;53.112;7.358;2023-09-18T08:09:38;19.00;1.00
5286;DHT22;2665;53.112;7.358;2023-09-18T08:12:05;19.10;1.00
5286;DHT22;2665;53.112;7.358;2023-09-18T08:14:31;19.10;1.00
5286;DHT22;2665;53.112;7.358;2023-09-18T08:17:00;19.10;1.00
5286;DHT22;2665;53.112;7.358;2023-09-18T08:19:27;19.10;1.00
5286;DHT22;2665;53.112;7.358;2023-09-18T08:21:53;19.20;1.00
5286;DHT22;2665;53.112;7.358;2023-09-18T08:24:20;19.30;1.00
5286;DHT22;2665;53.112;7.358;2023-09-18T08:26:46;19.40;1.00
5286;DHT22;2665;53.112;7.358;2023-09-18T08:29:12;19.40;1.00
5286;DHT22;2665;53.112;7.358;2023-09-18T08:31:38;19.40;1.00
5286;DHT22;2665;53.112;7.358;2023-09-18T08:34:04;19.40;1.00
5286;DHT22;2665;53.112;7.358;2023-09-18T08:36:30;19.40;1.00
5286;DHT22;2665;53.112;7.358;2023-09-18T08:38:56;19.40;1.00
5286;DHT22;2665;53.112;7.358;2023-09-18T08:41:23;19.40;1.00
5286;DHT22;2665;53.112;7.358;2023-09-18T08:43:55;19.40;1.00
5286;DHT22;2665;53.112;7.358;2023-09-18T08:46:22;19.40;1.00
5286;DHT22;2665;53.112;7.358;2023-09-18T08:48:50;19.40;1.00
5286;DHT22;2665;53.112;7.358;2023-09-18T08:51:18;19.40;1.00
5286;DHT22;2665;53.112;7.358;2023-09-18T08:53:44;19.40;1.00
5286;DHT22;2665;53.112;7.358;2023-09-18T08:56:12;19.40;1.00
5286;DHT22;2665;53.112;7.358;2023-09-18T08:58:39;19.50;1.00
5286;DHT22;2665;53.112;7.358;2023-09-18T09:01:10;19.40;1.00
5286;DHT22;2665;53.112;7.358;2023-09-18T09:03:41;19.50;1.00
5286;DHT22;2665;53.112;7.358;2023-09-18T09:06:08;19.40;1.00
5286;DHT22;2665;53.112;7.358;2023-09-18T09:08:35;19.50;1.00
5286;DHT22;2665;53.112;7.358;2023-09-18T09:11:01;19.40;1.00
5286;DHT22;2665;53.112;7.358;2023-09-18T09:13:27;19.40;1.00
5286;DHT22;2665;53.112;7.358;2023-09-18T09:16:02;19.50;1.00
5286;DHT22;2665;53.112;7.358;2023-09-18T09:18:29;19.50;1.00
5286;DHT22;2665;53.112;7.358;2023-09-18T09:20:59;19.60;1.00
5286;DHT22;2665;53.112;7.358;2023-09-18T09:23:27;19.60;1.00
5286;DHT22;2665;53.112;7.358;2023-09-18T09:25:54;19.70;1.00
5286;DHT22;2665;53.112;7.358;2023-09-18T09:28:31;19.70;1.00
5286;DHT22;2665;53.112;7.358;2023-09-18T09:31:03;19.80;1.00
5286;DHT22;2665;53.112;7.358;2023-09-18T09:33:30;19.80;1.00
5286;DHT22;2665;53.112;7.358;2023-09-18T09:35:56;19.90;1.00
5286;DHT22;2665;53.112;7.358;2023-09-18T09:38:29;20.00;1.00
5286;DHT22;2665;53.112;7.358;2023-09-18T09:40:57;20.00;1.00
5286;DHT22;2665;53.112;7.358;2023-09-18T09:43:25;20.00;1.00
5286;DHT22;2665;53.112;7.358;2023-09-18T09:45:57;20.00;1.00
5286;DHT22;2665;53.112;7.358;2023-09-18T09:48:24;20.00;1.00
5286;DHT22;2665;53.112;7.358;2023-09-18T09:50:51;20.10;1.00
5286;DHT22;2665;53.112;7.358;2023-09-18T09:53:18;20.10;1.00
5286;DHT22;2665;53.112;7.358;2023-09-18T09:55:44;20.10;1.00
5286;DHT22;2665;53.112;7.358;2023-09-18T09:58:11;20.20;1.00
5286;DHT22;2665;53.112;7.358;2023-09-18T10:00:46;20.20;1.00
5286;DHT22;2665;53.112;7.358;2023-09-18T10:03:19;20.30;1.00
5286;DHT22;2665;53.112;7.358;2023-09-18T10:05:46;20.30;1.00
5286;DHT22;2665;53.112;7.358;2023-09-18T10:08:16;20.30;1.00
5286;DHT22;2665;53.112;7.358;2023-09-18T10:10:50;20.40;1.00
5286;DHT22;2665;53.112;7.358;2023-09-18T10:13:19;20.40;1.00
5286;DHT22;2665;53.112;7.358;2023-09-18T10:15:49;20.50;1.00
5286;DHT22;2665;53.112;7.358;2023-09-18T10:21:22;20.50;1.00
5286;DHT22;2665;53.112;7.358;2023-09-18T10:29:17;20.70;1.00
5286;DHT22;2665;53.112;7.358;2023-09-18T10:31:45;20.80;1.00
5286;DHT22;2665;53.112;7.358;2023-09-18T10:34:13;21.10;1.00
5286;DHT22;2665;53.112;7.358;2023-09-18T10:36:41;21.50;1.00
5286;DHT22;2665;53.112;7.358;2023-09-18T10:39:09;21.50;1.00
5286;DHT22;2665;53.112;7.358;2023-09-18T10:41:38;21.50;1.00
5286;DHT22;2665;53.112;7.358;2023-09-18T10:44:04;21.50;1.00
5286;DHT22;2665;53.112;7.358;2023-09-18T10:46:31;21.70;99.90
5286;DHT22;2665;53.112;7.358;2023-09-18T10:48:59;21.70;1.00
5286;DHT22;2665;53.112;7.358;2023-09-18T10:51:25;21.70;99.90
5286;DHT22;2665;53.112;7.358;2023-09-18T10:53:53;21.70;99.90
5286;DHT22;2665;53.112;7.358;2023-09-18T10:56:21;21.70;99.90
5286;DHT22;2665;53.112;7.358;2023-09-18T10:58:56;21.80;99.90
5286;DHT22;2665;53.112;7.358;2023-09-18T11:01:23;21.90;99.90
5286;DHT22;2665;53.112;7.358;2023-09-18T11:03:50;22.00;99.90
5286;DHT22;2665;53.112;7.358;2023-09-18T11:06:16;21.90;1.00
5286;DHT22;2665;53.112;7.358;2023-09-18T11:08:46;21.90;99.90
5286;DHT22;2665;53.112;7.358;2023-09-18T11:11:13;21.90;1.00
5286;DHT22;2665;53.112;7.358;2023-09-18T11:13:51;21.90;3.20
5286;DHT22;2665;53.112;7.358;2023-09-18T11:21:32;22.00;1.00
5286;DHT22;2665;53.112;7.358;2023-09-18T11:26:35;22.20;99.90
5286;DHT22;2665;53.112;7.358;2023-09-18T11:29:05;22.40;1.00
5286;DHT22;2665;53.112;7.358;2023-09-18T11:31:51;22.60;1.00
5286;DHT22;2665;53.112;7.358;2023-09-18T11:34:24;23.40;99.90
5286;DHT22;2665;53.112;7.358;2023-09-18T11:36:52;23.30;99.90
5286;DHT22;2665;53.112;7.358;2023-09-18T11:42:13;23.40;29.60
5286;DHT22;2665;53.112;7.358;2023-09-18T11:44:42;23.20;99.90
5286;DHT22;2665;53.112;7.358;2023-09-18T11:47:13;23.10;99.90
5286;DHT22;2665;53.112;7.358;2023-09-18T11:49:50;23.60;99.90
5286;DHT22;2665;53.112;7.358;2023-09-18T11:52:22;23.70;1.00
5286;DHT22;2665;53.112;7.358;2023-09-18T11:54:48;24.00;1.00
5286;DHT22;2665;53.112;7.358;2023-09-18T11:57:15;24.60;1.00
5286;DHT22;2665;53.112;7.358;2023-09-18T11:59:41;24.40;99.90
5286;DHT22;2665;53.112;7.358;2023-09-18T12:02:25;24.00;99.90
5286;DHT22;2665;53.112;7.358;2023-09-18T12:04:53;23.60;1.00
5286;DHT22;2665;53.112;7.358;2023-09-18T12:07:19;24.10;1.00
5286;DHT22;2665;53.112;7.358;2023-09-18T12:09:45;23.90;99.90
5286;DHT22;2665;53.112;7.358;2023-09-18T12:12:11;23.70;99.90
5286;DHT22;2665;53.112;7.358;2023-09-18T12:14:40;23.80;1.00
5286;DHT22;2665;53.112;7.358;2023-09-18T12:17:08;24.80;1.00
5286;DHT22;2665;53.112;7.358;2023-09-18T12:19:34;25.70;99.90
5286;DHT22;2665;53.112;7.358;2023-09-18T12:22:01;26.00;1.00
5286;DHT22;2665;53.112;7.358;2023-09-18T12:24:27;26.20;1.00
5286;DHT22;2665;53.112;7.358;2023-09-18T12:26:54;26.40;1.00
5286;DHT22;2665;53.112;7.358;2023-09-18T12:29:20;26.60;1.00
5286;DHT22;2665;53.112;7.358;2023-09-18T12:31:46;26.70;1.00
5286;DHT22;2665;53.112;7.358;2023-09-18T12:34:20;26.90;1.00
5286;DHT22;2665;53.112;7.358;2023-09-18T12:36:47;27.10;1.00
5286;DHT22;2665;53.112;7.358;2023-09-18T12:39:14;27.30;1.00
5286;DHT22;2665;53.112;7.358;2023-09-18T12:41:46;27.50;1.00
5286;DHT22;2665;53.112;7.358;2023-09-18T12:44:12;27.80;1.00
5286;DHT22;2665;53.112;7.358;2023-09-18T12:46:40;27.70;1.00
5286;DHT22;2665;53.112;7.358;2023-09-18T12:49:35;28.00;1.00
5286;DHT22;2665;53.112;7.358;2023-09-18T12:52:02;28.40;1.00
5286;DHT22;2665;53.112;7.358;2023-09-18T12:54:44;28.30;1.00
5286;DHT22;2665;53.112;7.358;2023-09-18T12:57:20;27.80;1.00
5286;DHT22;2665;53.112;7.358;2023-09-18T12:59:46;27.20;1.00
5286;DHT22;2665;53.112;7.358;2023-09-18T13:02:15;26.90;1.00
5286;DHT22;2665;53.112;7.358;2023-09-18T13:04:51;26.20;1.00
5286;DHT22;2665;53.112;7.358;2023-09-18T13:07:17;25.60;1.00
5286;DHT22;2665;53.112;7.358;2023-09-18T13:09:58;25.60;1.00
5286;DHT22;2665;53.112;7.358;2023-09-18T13:12:25;26.30;1.00
5286;DHT22;2665;53.112;7.358;2023-09-18T13:15:03;25.90;1.00
5286;DHT22;2665;53.112;7.358;2023-09-18T13:17:45;25.30;1.00
5286;DHT22;2665;53.112;7.358;2023-09-18T13:20:17;24.90;1.00
5286;DHT22;2665;53.112;7.358;2023-09-18T13:25:19;24.10;1.00
5286;DHT22;2665;53.112;7.358;2023-09-18T13:27:50;24.00;1.00
5286;DHT22;2665;53.112;7.358;2023-09-18T13:30:16;23.70;1.00
5286;DHT22;2665;53.112;7.358;2023-09-18T13:32:46;23.50;1.00
5286;DHT22;2665;53.112;7.358;2023-09-18T13:35:16;23.40;1.00
5286;DHT22;2665;53.112;7.358;2023-09-18T13:37:43;23.30;1.00
5286;DHT22;2665;53.112;7.358;2023-09-18T13:40:10;23.20;1.00
5286;DHT22;2665;53.112;7.358;2023-09-18T13:42:39;23.10;1.00
5286;DHT22;2665;53.112;7.358;2023-09-18T13:45:06;23.40;1.00
5286;DHT22;2665;53.112;7.358;2023-09-18T13:47:32;23.40;1.00
5286;DHT22;2665;53.112;7.358;2023-09-18T13:50:00;23.20;1.00
5286;DHT22;2665;53.112;7.358;2023-09-18T13:52:27;23.10;1.00
5286;DHT22;2665;53.112;7.358;2023-09-18T13:54:53;23.00;1.00
5286;DHT22;2665;53.112;7.358;2023-09-18T13:57:19;22.90;1.00
5286;DHT22;2665;53.112;7.358;2023-09-18T13:59:45;23.10;1.00
5286;DHT22;2665;53.112;7.358;2023-09-18T14:02:12;24.10;1.00
5286;DHT22;2665;53.112;7.358;2023-09-18T14:04:38;24.90;1.00
5286;DHT22;2665;53.112;7.358;2023-09-18T14:07:08;25.60;1.00
5286;DHT22;2665;53.112;7.358;2023-09-18T14:09:34;26.40;1.00
5286;DHT22;2665;53.112;7.358;2023-09-18T14:12:01;26.50;1.00
5286;DHT22;2665;53.112;7.358;2023-09-18T14:14:28;26.30;1.00
5286;DHT22;2665;53.112;7.358;2023-09-18T14:16:54;26.50;1.00
5286;DHT22;2665;53.112;7.358;2023-09-18T14:19:20;27.00;1.00
5286;DHT22;2665;53.112;7.358;2023-09-18T14:21:46;27.40;1.00
5286;DHT22;2665;53.112;7.358;2023-09-18T14:24:11;27.60;1.00
5286;DHT22;2665;53.112;7.358;2023-09-18T14:26:37;27.70;1.00
5286;DHT22;2665;53.112;7.358;2023-09-18T14:29:15;27.90;1.00
5286;DHT22;2665;53.112;7.358;2023-09-18T14:31:41;27.90;1.00
5286;DHT22;2665;53.112;7.358;2023-09-18T14:34:07;27.70;1.00
5286;DHT22;2665;53.112;7.358;2023-09-18T14:36:36;27.30;1.00
5286;DHT22;2665;53.112;7.358;2023-09-18T14:39:06;27.30;1.00
5286;DHT22;2665;53.112;7.358;2023-09-18T14:41:35;27.30;1.00
5286;DHT22;2665;53.112;7.358;2023-09-18T14:44:01;26.90;1.00
5286;DHT22;2665;53.112;7.358;2023-09-18T14:46:29;26.60;1.00
5286;DHT22;2665;53.112;7.358;2023-09-18T14:48:54;26.30;1.00
5286;DHT22;2665;53.112;7.358;2023-09-18T14:51:20;26.60;1.00
5286;DHT22;2665;53.112;7.358;2023-09-18T14:53:46;26.40;1.00
5286;DHT22;2665;53.112;7.358;2023-09-18T14:56:11;25.90;1.00
5286;DHT22;2665;53.112;7.358;2023-09-18T14:58:37;25.50;1.00
5286;DHT22;2665;53.112;7.358;2023-09-18T15:01:03;26.00;1.00
5286;DHT22;2665;53.112;7.358;2023-09-18T15:03:28;26.40;1.00
5286;DHT22;2665;53.112;7.358;2023-09-18T15:05:54;26.60;1.00
5286;DHT22;2665;53.112;7.358;2023-09-18T15:08:21;27.20;1.00
5286;DHT22;2665;53.112;7.358;2023-09-18T15:10:46;27.50;1.00
5286;DHT22;2665;53.112;7.358;2023-09-18T15:13:12;27.70;1.00
5286;DHT22;2665;53.112;7.358;2023-09-18T15:15:42;27.80;1.00
5286;DHT22;2665;53.112;7.358;2023-09-18T15:18:09;27.70;1.00
5286;DHT22;2665;53.112;7.358;2023-09-18T15:20:34;27.90;1.00
5286;DHT22;2665;53.112;7.358;2023-09-18T15:23:00;28.00;1.00
5286;DHT22;2665;53.112;7.358;2023-09-18T15:25:26;28.00;1.00
5286;DHT22;2665;53.112;7.358;2023-09-18T15:27:52;27.80;1.00
5286;DHT22;2665;53.112;7.358;2023-09-18T15:30:18;27.70;1.00
5286;DHT22;2665;53.112;7.358;2023-09-18T15:32:51;27.50;1.00
5286;DHT22;2665;53.112;7.358;2023-09-18T15:35:19;26.80;1.00
5286;DHT22;2665;53.112;7.358;2023-09-18T15:37:45;26.20;1.00
5286;DHT22;2665;53.112;7.358;2023-09-18T15:40:11;26.30;1.00
5286;DHT22;2665;53.112;7.358;2023-09-18T15:42:40;26.40;1.00
5286;DHT22;2665;53.112;7.358;2023-09-18T15:45:07;26.30;1.00
5286;DHT22;2665;53.112;7.358;2023-09-18T15:47:34;26.30;1.00
5286;DHT22;2665;53.112;7.358;2023-09-18T15:50:00;26.30;1.00
5286;DHT22;2665;53.112;7.358;2023-09-18T15:52:26;26.30;1.00
5286;DHT22;2665;53.112;7.358;2023-09-18T15:54:51;26.20;1.00
5286;DHT22;2665;53.112;7.358;2023-09-18T15:57:17;26.00;1.00
5286;DHT22;2665;53.112;7.358;2023-09-18T15:59:43;26.10;1.00
5286;DHT22;2665;53.112;7.358;2023-09-18T16:02:09;26.10;1.00
5286;DHT22;2665;53.112;7.358;2023-09-18T16:04:35;26.10;1.00
5286;DHT22;2665;53.112;7.358;2023-09-18T16:07:02;26.10;1.00
5286;DHT22;2665;53.112;7.358;2023-09-18T16:09:27;25.90;1.00
5286;DHT22;2665;53.112;7.358;2023-09-18T16:11:53;25.70;1.00
5286;DHT22;2665;53.112;7.358;2023-09-18T16:14:19;25.70;1.00
5286;DHT22;2665;53.112;7.358;2023-09-18T16:16:46;25.70;1.00
5286;DHT22;2665;53.112;7.358;2023-09-18T16:19:12;25.70;1.00
5286;DHT22;2665;53.112;7.358;2023-09-18T16:21:37;25.70;1.00
5286;DHT22;2665;53.112;7.358;2023-09-18T16:24:03;25.80;1.00
5286;DHT22;2665;53.112;7.358;2023-09-18T16:26:32;25.90;1.00
5286;DHT22;2665;53.112;7.358;2023-09-18T16:28:58;26.00;1.00
5286;DHT22;2665;53.112;7.358;2023-09-18T16:31:24;26.10;1.00
5286;DHT22;2665;53.112;7.358;2023-09-18T16:33:51;26.00;1.00
5286;DHT22;2665;53.112;7.358;2023-09-18T16:36:17;25.50;1.00
5286;DHT22;2665;53.112;7.358;2023-09-18T16:38:43;25.30;1.00
5286;DHT22;2665;53.112;7.358;2023-09-18T16:41:09;24.70;1.00
5286;DHT22;2665;53.112;7.358;2023-09-18T16:43:36;24.20;1.00
5286;DHT22;2665;53.112;7.358;2023-09-18T16:46:05;23.80;1.00